createdAt,value
2023-02-24T00:00:47.348Z,95802.25
2023-02-24T00:03:15.829Z,95798.84
2023-02-24T00:05:54.598Z,95797.34
2023-02-24T00:08:24.490Z,95789.06
2023-02-24T00:10:54.244Z,95784.72
2023-02-24T00:13:22.648Z,95781.09
2023-02-24T00:16:02.047Z,95786.94
2023-02-24T00:18:32.230Z,95776.09
2023-02-24T00:21:08.203Z,95775.94
2023-02-24T00:23:40.290Z,95780.22
2023-02-24T00:26:10.224Z,95780.41
2023-02-24T00:28:38.954Z,95772.38
2023-02-24T00:31:09.913Z,95775.84
2023-02-24T00:33:39.732Z,95775.84
2023-02-24T00:36:10.584Z,95770.59
2023-02-24T00:38:45.010Z,95768.78
2023-02-24T00:41:18.281Z,95770.59
2023-02-24T00:43:47.866Z,95761.34
2023-02-24T00:46:17.419Z,95769.91
2023-02-24T00:48:46.966Z,95757.13
2023-02-24T00:51:18.122Z,95762.19
2023-02-24T00:53:47.990Z,95765.59
2023-02-24T00:56:17.042Z,95759.00
2023-02-24T00:58:45.715Z,95757.06
2023-02-24T01:01:15.728Z,95760.34
2023-02-24T01:03:44.559Z,95752.97
2023-02-24T01:06:14.497Z,95751.16
2023-02-24T01:08:47.641Z,95749.50
2023-02-24T01:11:36.484Z,95746.09
2023-02-24T01:14:06.269Z,95748.81
2023-02-24T01:16:34.622Z,95747.16
2023-02-24T01:19:02.998Z,95740.63
2023-02-24T01:21:31.415Z,95738.66
2023-02-24T01:24:10.544Z,95731.94
2023-02-24T01:26:40.539Z,95727.53
2023-02-24T01:29:09.789Z,95730.97
2023-02-24T01:31:38.593Z,95719.31
2023-02-24T01:34:07.517Z,95734.03
2023-02-24T01:36:35.835Z,95725.31
2023-02-24T01:39:07.344Z,95725.59
2023-02-24T01:41:35.732Z,95723.97
2023-02-24T01:44:09.676Z,95722.34
2023-02-24T01:46:39.804Z,95719.94
2023-02-24T01:49:12.030Z,95713.16
2023-02-24T01:51:43.892Z,95707.91
2023-02-24T01:54:16.491Z,95700.88
2023-02-24T01:56:48.386Z,95693.81
2023-02-24T01:59:18.462Z,95697.78
2023-02-24T02:01:48.446Z,95698.59
2023-02-24T02:04:22.122Z,95690.56
2023-02-24T02:06:50.779Z,95686.31
2023-02-24T02:09:19.435Z,95690.63
2023-02-24T02:11:49.287Z,95679.13
2023-02-24T02:14:22.588Z,95677.66
2023-02-24T02:17:05.044Z,95684.25
2023-02-24T02:20:01.442Z,95676.69
2023-02-24T02:22:50.151Z,95678.00
2023-02-24T02:25:25.566Z,95684.38
2023-02-24T02:28:22.588Z,95678.66
2023-02-24T02:31:25.881Z,95677.47
2023-02-24T02:34:23.392Z,95675.66
2023-02-24T02:37:00.459Z,95674.94
2023-02-24T02:39:37.108Z,95671.78
2023-02-24T02:42:15.910Z,95678.16
2023-02-24T02:44:56.172Z,95674.97
2023-02-24T02:47:29.118Z,95675.72
2023-02-24T02:50:08.185Z,95672.06
2023-02-24T02:52:42.296Z,95665.63
2023-02-24T02:55:14.618Z,95668.56
2023-02-24T02:57:48.373Z,95671.19
2023-02-24T03:00:23.251Z,95669.41
2023-02-24T03:02:55.262Z,95663.69
2023-02-24T03:05:32.864Z,95670.25
2023-02-24T03:08:05.676Z,95664.88
2023-02-24T03:10:34.909Z,95667.78
2023-02-24T03:13:06.850Z,95666.31
2023-02-24T03:15:44.839Z,95662.06
2023-02-24T03:18:29.085Z,95658.91
2023-02-24T03:21:07.552Z,95667.59
2023-02-24T03:23:38.909Z,95663.69
2023-02-24T03:26:17.265Z,95665.16
2023-02-24T03:28:53.682Z,95660.94
2023-02-24T03:31:29.029Z,95655.53
2023-02-24T03:34:03.807Z,95657.16
2023-02-24T03:36:34.128Z,95658.16
2023-02-24T03:39:05.428Z,95659.78
2023-02-24T03:41:41.284Z,95657.13
2023-02-24T03:44:12.129Z,95653.34
2023-02-24T03:46:42.582Z,95660.19
2023-02-24T03:49:14.023Z,95656.44
2023-02-24T03:51:45.099Z,95658.75
2023-02-24T03:54:30.858Z,95659.59
2023-02-24T03:57:12.909Z,95659.59
2023-02-24T03:59:52.819Z,95664.53
2023-02-24T04:02:25.105Z,95656.97
2023-02-24T04:05:00.462Z,95655.03
2023-02-24T04:07:41.193Z,95653.22
2023-02-24T04:10:15.556Z,95651.94
2023-02-24T04:12:53.879Z,95650.81
2023-02-24T04:15:29.059Z,95646.22
2023-02-24T04:18:01.423Z,95649.50
2023-02-24T04:20:33.079Z,95643.16
2023-02-24T04:23:08.771Z,95642.31
2023-02-24T04:25:37.954Z,95636.34
2023-02-24T04:28:08.031Z,95640.25
2023-02-24T04:30:40.051Z,95640.88
2023-02-24T04:33:10.085Z,95643.25
2023-02-24T04:35:40.518Z,95638.09
2023-02-24T04:38:10.219Z,95629.81
2023-02-24T04:40:40.870Z,95634.53
2023-02-24T04:43:09.918Z,95628.09
2023-02-24T04:45:40.050Z,95625.81
2023-02-24T04:48:12.951Z,95624.72
2023-02-24T04:50:43.170Z,95620.50
2023-02-24T04:53:15.523Z,95611.44
2023-02-24T04:55:48.772Z,95610.47
2023-02-24T04:58:20.236Z,95600.97
2023-02-24T05:00:57.399Z,95602.75
2023-02-24T05:03:28.589Z,95598.88
2023-02-24T05:06:00.097Z,95594.63
2023-02-24T05:08:31.850Z,95589.78
2023-02-24T05:11:05.671Z,95589.78
2023-02-24T05:13:37.659Z,95590.59
2023-02-24T05:16:08.341Z,95584.00
2023-02-24T05:18:37.207Z,95581.84
2023-02-24T05:21:25.880Z,95579.53
2023-02-24T05:23:55.949Z,95574.22
2023-02-24T05:26:25.793Z,95572.88
2023-02-24T05:28:59.665Z,95567.50
2023-02-24T05:31:29.885Z,95574.59
2023-02-24T05:34:02.648Z,95574.44
2023-02-24T05:36:34.207Z,95565.47
2023-02-24T05:39:07.696Z,95571.97
2023-02-24T05:41:38.909Z,95559.84
2023-02-24T05:44:09.506Z,95558.50
2023-02-24T05:46:40.394Z,95552.13
2023-02-24T05:49:14.302Z,95555.94
2023-02-24T05:51:54.583Z,95546.44
2023-02-24T05:54:29.353Z,95548.53
2023-02-24T05:57:01.562Z,95548.03
2023-02-24T05:59:33.075Z,95543.91
2023-02-24T06:02:07.056Z,95539.63
2023-02-24T06:04:50.032Z,95538.16
2023-02-24T06:07:20.754Z,95533.88
2023-02-24T06:09:53.634Z,95532.91
2023-02-24T06:12:23.416Z,95536.19
2023-02-24T06:14:53.015Z,95526.69
2023-02-24T06:17:22.957Z,95523.91
2023-02-24T06:19:53.076Z,95529.81
2023-02-24T06:22:23.265Z,95541.34
2023-02-24T06:24:54.484Z,95539.94
2023-02-24T06:27:24.896Z,95548.09
2023-02-24T06:29:55.329Z,95544.22
2023-02-24T06:32:27.054Z,95539.00
2023-02-24T06:34:57.188Z,95544.28
2023-02-24T06:37:27.320Z,95546.28
2023-02-24T06:39:58.260Z,95540.56
2023-02-24T06:42:26.597Z,95538.13
2023-02-24T06:44:54.989Z,95540.13
2023-02-24T06:47:23.290Z,95539.50
2023-02-24T06:49:51.761Z,95534.13
2023-02-24T06:52:21.373Z,95524.47
2023-02-24T06:54:52.466Z,95521.88
2023-02-24T06:57:23.552Z,95523.88
2023-02-24T06:59:52.325Z,95517.16
2023-02-24T07:02:20.686Z,95517.47
2023-02-24T07:04:49.050Z,95519.44
2023-02-24T07:07:17.605Z,95514.53
2023-02-24T07:09:46.132Z,95520.13
2023-02-24T07:12:21.079Z,95510.94
2023-02-24T07:14:50.916Z,95513.06
2023-02-24T07:17:19.973Z,95507.13
2023-02-24T07:19:48.378Z,95509.28
2023-02-24T07:22:24.943Z,95504.19
2023-02-24T07:25:00.514Z,95501.88
2023-02-24T07:27:30.103Z,95501.38
2023-02-24T07:30:00.142Z,95494.81
2023-02-24T07:32:28.529Z,95506.66
2023-02-24T07:34:56.856Z,95508.78
2023-02-24T07:37:25.211Z,95513.88
2023-02-24T07:39:53.692Z,95501.38
2023-02-24T07:42:22.492Z,95512.56
2023-02-24T07:44:50.967Z,95507.13
2023-02-24T07:47:21.449Z,95506.94
2023-02-24T07:49:51.302Z,95501.34
2023-02-24T07:52:19.653Z,95498.06
2023-02-24T07:54:49.666Z,95501.00
2023-02-24T07:57:19.007Z,95498.88
2023-02-24T07:59:48.120Z,95502.16
2023-02-24T08:02:18.362Z,95493.91
2023-02-24T08:04:51.734Z,95495.41
2023-02-24T08:07:24.817Z,95498.69
2023-02-24T08:10:14.415Z,95493.25
2023-02-24T08:12:43.790Z,95489.78
2023-02-24T08:15:24.064Z,95487.81
2023-02-24T08:18:00.474Z,95497.19
2023-02-24T08:20:36.270Z,95497.47
2023-02-24T08:23:08.551Z,95503.38
2023-02-24T08:25:36.939Z,95503.72
2023-02-24T08:28:09.177Z,95501.41
2023-02-24T08:30:40.684Z,95499.91
2023-02-24T08:33:10.708Z,95494.78
2023-02-24T08:35:45.329Z,95496.38
2023-02-24T08:38:16.555Z,95492.03
2023-02-24T08:40:55.113Z,95486.94
2023-02-24T08:43:33.411Z,95485.41
2023-02-24T08:46:06.612Z,95477.63
2023-02-24T08:48:42.194Z,95481.75
2023-02-24T08:51:17.768Z,95469.41
2023-02-24T08:53:47.779Z,95470.34
2023-02-24T08:56:24.260Z,95461.75
2023-02-24T08:58:58.111Z,95469.91
2023-02-24T09:01:34.633Z,95470.56
2023-02-24T09:04:06.382Z,95459.03
2023-02-24T09:06:45.020Z,95470.22
2023-02-24T09:09:19.010Z,95464.41
2023-02-24T09:11:48.445Z,95464.06
2023-02-24T09:14:27.119Z,95454.16
2023-02-24T09:17:11.257Z,95447.72
2023-02-24T09:20:02.446Z,95445.38
2023-02-24T09:22:40.680Z,95438.78
2023-02-24T09:25:23.891Z,95442.53
2023-02-24T09:27:56.099Z,95447.25
2023-02-24T09:30:36.821Z,95437.66
2023-02-24T09:33:21.260Z,95442.19
2023-02-24T09:36:02.933Z,95438.84
2023-02-24T09:38:50.178Z,95435.69
2023-02-24T09:41:31.628Z,95436.78
2023-02-24T09:44:04.020Z,95428.97
2023-02-24T09:46:39.331Z,95423.59
2023-02-24T09:49:17.350Z,95425.78
2023-02-24T09:51:53.332Z,95420.06
2023-02-24T09:54:24.725Z,95417.13
2023-02-24T09:57:08.253Z,95407.31
2023-02-24T10:00:01.110Z,95403.53
2023-02-24T10:02:45.248Z,95391.59
2023-02-24T10:05:27.387Z,95397.03
2023-02-24T10:07:58.050Z,95398.00
2023-02-24T10:10:36.012Z,95388.59
2023-02-24T10:13:17.037Z,95384.41
2023-02-24T10:16:06.171Z,95385.13
2023-02-24T10:18:44.188Z,95383.56
2023-02-24T10:21:30.402Z,95372.22
2023-02-24T10:24:09.424Z,95373.94
2023-02-24T10:27:00.090Z,95365.06
2023-02-24T10:29:43.234Z,95360.59
2023-02-24T10:32:24.060Z,95356.63
2023-02-24T10:34:53.991Z,95355.06
2023-02-24T10:37:28.912Z,95345.78
2023-02-24T10:39:59.650Z,95344.63
2023-02-24T10:42:31.972Z,95342.19
2023-02-24T10:45:20.673Z,95339.97
2023-02-24T10:47:57.094Z,95326.97
2023-02-24T10:50:29.798Z,95329.69
2023-02-24T10:53:34.359Z,95319.53
2023-02-24T10:56:26.762Z,95309.59
2023-02-24T10:59:41.224Z,95305.53
2023-02-24T11:02:29.444Z,95298.44
2023-02-24T11:05:37.871Z,95296.81
2023-02-24T11:08:09.520Z,95288.25
2023-02-24T11:10:53.264Z,95282.38
2023-02-24T11:13:39.440Z,95271.81
2023-02-24T11:16:29.265Z,95269.38
2023-02-24T11:18:58.605Z,95261.41
2023-02-24T11:21:28.769Z,95253.84
2023-02-24T11:24:02.966Z,95251.81
2023-02-24T11:26:37.308Z,95248.34
2023-02-24T11:29:24.234Z,95249.16
2023-02-24T11:32:18.922Z,95243.25
2023-02-24T11:34:54.350Z,95243.25
2023-02-24T11:37:37.331Z,95233.88
2023-02-24T11:40:13.583Z,95227.34
2023-02-24T11:42:46.275Z,95216.53
2023-02-24T11:45:29.398Z,95214.69
2023-02-24T11:48:04.919Z,95216.34
2023-02-24T11:50:47.225Z,95217.13
2023-02-24T11:53:27.325Z,95210.84
2023-02-24T11:56:01.887Z,95199.19
2023-02-24T11:58:40.459Z,95199.59
2023-02-24T12:01:16.019Z,95199.78
2023-02-24T12:03:56.687Z,95193.47
2023-02-24T12:06:35.371Z,95178.59
2023-02-24T12:09:10.353Z,95179.38
2023-02-24T12:11:46.510Z,95176.75
2023-02-24T12:14:24.171Z,95166.34
2023-02-24T12:17:01.321Z,95170.00
2023-02-24T12:19:37.153Z,95168.38
2023-02-24T12:22:15.547Z,95157.78
2023-02-24T12:24:49.850Z,95157.78
2023-02-24T12:27:27.681Z,95148.41
2023-02-24T12:30:06.863Z,95143.09
2023-02-24T12:32:57.535Z,95136.16
2023-02-24T12:35:35.281Z,95136.97
2023-02-24T12:38:17.457Z,95125.16
2023-02-24T12:41:05.757Z,95119.84
2023-02-24T12:43:39.919Z,95122.25
2023-02-24T12:46:24.278Z,95118.59
2023-02-24T12:49:16.524Z,95120.66
2023-02-24T12:51:57.406Z,95112.09
2023-02-24T12:54:38.375Z,95105.97
2023-02-24T12:57:15.791Z,95100.88
2023-02-24T12:59:44.406Z,95102.50
2023-02-24T13:02:23.535Z,95093.94
2023-02-24T13:05:14.007Z,95091.06
2023-02-24T13:08:03.867Z,95095.38
2023-02-24T13:10:39.689Z,95094.97
2023-02-24T13:13:25.138Z,95098.84
2023-02-24T13:16:09.090Z,95083.75
2023-02-24T13:18:39.555Z,95079.88
2023-02-24T13:21:10.925Z,95076.22
2023-02-24T13:23:42.867Z,95073.31
2023-02-24T13:26:11.458Z,95076.56
2023-02-24T13:28:39.917Z,95071.88
2023-02-24T13:31:10.461Z,95072.06
2023-02-24T13:33:41.936Z,95061.22
2023-02-24T13:36:14.794Z,95055.69
2023-02-24T13:38:46.107Z,95048.72
2023-02-24T13:41:38.092Z,95045.63
2023-02-24T13:44:24.450Z,95045.66
2023-02-24T13:47:18.989Z,95053.06
2023-02-24T13:50:01.090Z,95048.81
2023-02-24T13:52:46.997Z,95044.94
2023-02-24T13:55:33.826Z,95045.53
2023-02-24T13:58:20.894Z,95042.91
2023-02-24T14:01:03.618Z,95053.09
2023-02-24T14:03:33.028Z,95058.25
2023-02-24T14:06:02.984Z,95039.50
2023-02-24T14:08:42.422Z,95026.03
2023-02-24T14:11:16.380Z,95025.81
2023-02-24T14:13:49.482Z,95020.28
2023-02-24T14:16:21.767Z,95026.63
2023-02-24T14:18:55.122Z,95031.34
2023-02-24T14:21:26.018Z,95021.75
2023-02-24T14:23:58.820Z,95025.63
2023-02-24T14:26:31.490Z,95017.47
2023-02-24T14:29:01.827Z,95006.88
2023-02-24T14:31:31.257Z,95008.28
2023-02-24T14:34:02.553Z,95015.44
2023-02-24T14:36:34.227Z,95011.56
2023-02-24T14:39:09.196Z,95010.38
2023-02-24T14:41:38.886Z,95006.72
2023-02-24T14:44:19.372Z,95011.44
2023-02-24T14:46:49.363Z,94997.94
2023-02-24T14:49:26.277Z,94999.13
2023-02-24T14:51:59.099Z,94988.31
2023-02-24T14:54:40.300Z,94995.06
2023-02-24T14:57:13.814Z,94987.13
2023-02-24T14:59:46.336Z,94977.91
2023-02-24T15:02:19.600Z,94973.63
2023-02-24T15:04:48.529Z,94975.84
2023-02-24T15:07:23.758Z,94964.84
2023-02-24T15:09:54.967Z,94959.53
2023-02-24T15:12:30.166Z,94966.47
2023-02-24T15:15:01.988Z,94952.19
2023-02-24T15:17:31.098Z,94950.13
2023-02-24T15:19:59.512Z,94940.75
2023-02-24T15:22:30.676Z,94935.69
2023-02-24T15:25:18.750Z,94927.94
2023-02-24T15:27:53.883Z,94927.34
2023-02-24T15:30:34.061Z,94921.44
2023-02-24T15:33:05.938Z,94923.47
2023-02-24T15:35:37.620Z,94932.25
2023-02-24T15:38:06.423Z,94926.94
2023-02-24T15:40:34.744Z,94921.63
2023-02-24T15:43:12.001Z,94916.53
2023-02-24T15:45:41.227Z,94915.75
2023-02-24T15:48:24.176Z,94913.28
2023-02-24T15:50:52.518Z,94911.44
2023-02-24T15:53:21.077Z,94906.97
2023-02-24T15:55:50.266Z,94910.44
2023-02-24T15:58:23.088Z,94901.69
2023-02-24T16:00:52.508Z,94907.78
2023-02-24T16:03:21.061Z,94902.91
2023-02-24T16:05:49.471Z,94900.09
2023-02-24T16:08:20.666Z,94886.88
2023-02-24T16:10:50.440Z,94890.97
2023-02-24T16:13:23.996Z,94892.38
2023-02-24T16:15:53.465Z,94888.75
2023-02-24T16:18:24.324Z,94880.41
2023-02-24T16:20:54.473Z,94882.47
2023-02-24T16:23:23.895Z,94891.84
2023-02-24T16:25:56.689Z,94892.50
2023-02-24T16:28:27.007Z,94884.16
2023-02-24T16:30:55.461Z,94875.22
2023-02-24T16:33:24.351Z,94863.84
2023-02-24T16:35:54.008Z,94866.28
2023-02-24T16:38:26.660Z,94866.94
2023-02-24T16:40:56.262Z,94864.69
2023-02-24T16:43:26.044Z,94864.53
2023-02-24T16:45:56.581Z,94869.63
2023-02-24T16:48:27.514Z,94869.47
2023-02-24T16:50:56.245Z,94867.22
2023-02-24T16:53:25.389Z,94866.00
2023-02-24T16:55:53.986Z,94867.44
2023-02-24T16:58:23.421Z,94860.72
2023-02-24T17:00:56.202Z,94860.13
2023-02-24T17:03:28.008Z,94864.59
2023-02-24T17:05:57.696Z,94867.25
2023-02-24T17:08:26.276Z,94863.81
2023-02-24T17:10:54.793Z,94856.66
2023-02-24T17:13:23.250Z,94854.81
2023-02-24T17:15:55.468Z,94863.81
2023-02-24T17:18:24.430Z,94865.06
2023-02-24T17:20:53.264Z,94858.75
2023-02-24T17:23:21.794Z,94869.16
2023-02-24T17:25:53.559Z,94877.91
2023-02-24T17:28:22.264Z,94864.91
2023-02-24T17:30:50.777Z,94874.06
2023-02-24T17:33:20.530Z,94864.09
2023-02-24T17:35:49.570Z,94867.16
2023-02-24T17:38:20.177Z,94868.34
2023-02-24T17:40:48.899Z,94872.41
2023-02-24T17:43:17.515Z,94875.69
2023-02-24T17:45:47.679Z,94864.72
2023-02-24T17:48:16.768Z,94864.69
2023-02-24T17:50:51.130Z,94865.91
2023-02-24T17:53:19.631Z,94869.78
2023-02-24T17:56:01.952Z,94861.44
2023-02-24T17:58:30.890Z,94866.34
2023-02-24T18:01:00.388Z,94872.44
2023-02-24T18:03:29.287Z,94869.38
2023-02-24T18:06:03.272Z,94868.97
2023-02-24T18:08:33.368Z,94877.72
2023-02-24T18:11:01.785Z,94897.06
2023-02-24T18:13:31.292Z,94900.50
2023-02-24T18:16:00.048Z,94899.50
2023-02-24T18:18:30.214Z,94898.66
2023-02-24T18:21:04.160Z,94892.16
2023-02-24T18:23:32.668Z,94896.03
2023-02-24T18:26:03.199Z,94897.25
2023-02-24T18:28:32.025Z,94893.94
2023-02-24T18:31:03.260Z,94896.56
2023-02-24T18:33:31.898Z,94896.34
2023-02-24T18:36:02.948Z,94888.00
2023-02-24T18:38:31.325Z,94884.34
2023-02-24T18:41:01.184Z,94882.50
2023-02-24T18:43:30.102Z,94873.13
2023-02-24T18:45:59.448Z,94867.84
2023-02-24T18:48:28.427Z,94859.31
2023-02-24T18:50:58.649Z,94861.75
2023-02-24T18:53:30.386Z,94866.25
2023-02-24T18:56:02.214Z,94867.66
2023-02-24T18:58:31.049Z,94864.63
2023-02-24T19:00:59.739Z,94859.75
2023-02-24T19:03:28.119Z,94861.19
2023-02-24T19:05:56.687Z,94858.75
2023-02-24T19:08:25.000Z,94868.88
2023-02-24T19:10:54.689Z,94856.72
2023-02-24T19:13:24.039Z,94856.09
2023-02-24T19:15:52.477Z,94862.56
2023-02-24T19:18:20.819Z,94851.41
2023-02-24T19:20:49.259Z,94853.63
2023-02-24T19:23:17.613Z,94857.47
2023-02-24T19:25:46.005Z,94862.34
2023-02-24T19:28:16.389Z,94865.59
2023-02-24T19:30:44.975Z,94873.50
2023-02-24T19:33:13.400Z,94878.19
2023-02-24T19:35:42.920Z,94874.31
2023-02-24T19:38:14.657Z,94862.53
2023-02-24T19:40:43.521Z,94863.28
2023-02-24T19:43:12.410Z,94854.56
2023-02-24T19:45:43.349Z,94850.31
2023-02-24T19:48:11.795Z,94848.25
2023-02-24T19:50:41.395Z,94845.81
2023-02-24T19:53:10.156Z,94845.41
2023-02-24T19:55:38.536Z,94857.16
2023-02-24T19:58:06.868Z,94862.22
2023-02-24T20:00:35.213Z,94863.59
2023-02-24T20:03:04.907Z,94855.06
2023-02-24T20:05:36.454Z,94858.91
2023-02-24T20:08:05.192Z,94862.34
2023-02-24T20:10:33.552Z,94853.38
2023-02-24T20:13:02.005Z,94857.44
2023-02-24T20:15:31.556Z,94858.03
2023-02-24T20:18:08.773Z,94847.84
2023-02-24T20:20:37.350Z,94840.94
2023-02-24T20:23:06.312Z,94842.16
2023-02-24T20:25:34.778Z,94845.81
2023-02-24T20:28:03.229Z,94837.47
2023-02-24T20:30:31.620Z,94832.59
2023-02-24T20:33:00.106Z,94817.16
2023-02-24T20:35:30.189Z,94823.25
2023-02-24T20:37:58.506Z,94817.78
2023-02-24T20:40:26.936Z,94814.53
2023-02-24T20:42:55.375Z,94810.25
2023-02-24T20:45:23.722Z,94809.03
2023-02-24T20:47:52.078Z,94800.94
2023-02-24T20:50:20.467Z,94795.28
2023-02-24T20:52:50.122Z,94794.44
2023-02-24T20:55:18.612Z,94793.44
2023-02-24T20:57:47.005Z,94782.66
2023-02-24T21:00:16.281Z,94780.25
2023-02-24T21:02:45.083Z,94775.78
2023-02-24T21:05:19.727Z,94778.59
2023-02-24T21:07:50.947Z,94773.72
2023-02-24T21:10:22.406Z,94762.38
2023-02-24T21:12:52.601Z,94755.88
2023-02-24T21:15:21.948Z,94738.06
2023-02-24T21:17:54.167Z,94723.84
2023-02-24T21:20:22.554Z,94724.66
2023-02-24T21:22:52.984Z,94716.75
2023-02-24T21:25:21.420Z,94703.38
2023-02-24T21:27:49.757Z,94696.88
2023-02-24T21:30:18.397Z,94679.66
2023-02-24T21:32:46.943Z,94670.34
2023-02-24T21:35:21.665Z,94641.75
2023-02-24T21:37:49.997Z,94651.69
2023-02-24T21:40:19.959Z,94655.75
2023-02-24T21:42:55.556Z,94673.19
2023-02-24T21:45:24.539Z,94681.28
2023-02-24T21:47:53.037Z,94703.19
2023-02-24T21:50:23.789Z,94730.59
2023-02-24T21:52:52.605Z,94744.50
2023-02-24T21:55:23.494Z,94743.03
2023-02-24T21:57:55.199Z,94743.84
2023-02-24T22:00:24.413Z,94729.47
2023-02-24T22:02:59.917Z,94709.22
2023-02-24T22:05:29.318Z,94719.38
2023-02-24T22:07:58.006Z,94707.59
2023-02-24T22:10:28.122Z,94704.78
2023-02-24T22:12:57.930Z,94699.31
2023-02-24T22:15:26.408Z,94704.19
2023-02-24T22:17:57.899Z,94703.19
2023-02-24T22:20:26.598Z,94707.44
2023-02-24T22:23:05.691Z,94706.25
2023-02-24T22:25:39.690Z,94698.75
2023-02-24T22:28:08.495Z,94698.75
2023-02-24T22:30:36.907Z,94695.88
2023-02-24T22:33:05.359Z,94699.09
2023-02-24T22:35:35.390Z,94688.28
2023-02-24T22:38:04.458Z,94706.91
2023-02-24T22:40:33.161Z,94738.09
2023-02-24T22:43:05.083Z,94748.09
2023-02-24T22:45:34.126Z,94759.13
2023-02-24T22:48:03.086Z,94790.19
2023-02-24T22:50:31.753Z,94803.63
2023-02-24T22:53:04.455Z,94806.50
2023-02-24T22:55:33.291Z,94806.44
2023-02-24T22:58:03.183Z,94800.84
2023-02-24T23:00:32.002Z,94810.50
2023-02-24T23:03:00.737Z,94812.53
2023-02-24T23:05:29.849Z,94822.53
2023-02-24T23:07:59.056Z,94829.97
2023-02-24T23:10:28.026Z,94826.72
2023-02-24T23:12:56.923Z,94845.75
2023-02-24T23:15:26.910Z,94843.06
2023-02-24T23:17:55.467Z,94864.53
2023-02-24T23:20:23.892Z,94865.31
2023-02-24T23:22:53.579Z,94861.84
2023-02-24T23:25:23.151Z,94877.03
2023-02-24T23:27:54.060Z,94890.88
2023-02-24T23:30:23.144Z,94888.66
2023-02-24T23:33:01.047Z,94893.13
2023-02-24T23:35:30.169Z,94901.06
2023-02-24T23:37:58.497Z,94910.44
2023-02-24T23:40:30.833Z,94925.88
2023-02-24T23:43:02.586Z,94921.44
2023-02-24T23:45:30.970Z,94941.16
2023-02-24T23:48:00.630Z,94934.63
2023-02-24T23:50:29.000Z,94937.94
2023-02-24T23:52:58.563Z,94935.66
2023-02-24T23:55:26.912Z,94944.25
2023-02-24T23:57:55.418Z,94940.66
